TimeCST,TemperatureF,Dew PointF,Humidity,Sea Level PressureIn,VisibilityMPH,Wind Direction,Wind SpeedMPH,Gust SpeedMPH,PrecipitationIn,Events,Conditions,WindDirDegrees,DateUTC
12:53 AM,19.9,9.0,62,30.31,10.0,NNW,9.2,-,N/A,,Clear,340,2013-01-20 06:53:00
1:53 AM,18.0,6.1,60,30.35,10.0,North,8.1,-,N/A,,Clear,350,2013-01-20 07:53:00
2:53 AM,16.0,8.1,71,30.34,10.0,North,9.2,-,N/A,,Clear,350,2013-01-20 08:53:00
3:53 AM,15.1,8.1,74,30.33,10.0,North,9.2,-,N/A,,Clear,350,2013-01-20 09:53:00
4:53 AM,15.1,7.0,70,30.32,10.0,North,8.1,-,N/A,,Clear,360,2013-01-20 10:53:00
5:53 AM,14.0,7.0,74,30.34,10.0,North,8.1,-,N/A,,Clear,350,2013-01-20 11:53:00
6:53 AM,12.0,5.0,73,30.37,10.0,North,5.8,-,N/A,,Clear,350,2013-01-20 12:53:00
7:53 AM,12.0,5.0,73,30.38,10.0,NNW,4.6,-,N/A,,Clear,340,2013-01-20 13:53:00
8:53 AM,16.0,6.1,65,30.38,10.0,NNE,6.9,-,N/A,,Clear,20,2013-01-20 14:53:00
9:53 AM,17.1,5.0,59,30.39,10.0,NNE,6.9,-,N/A,,Clear,20,2013-01-20 15:53:00
10:53 AM,19.0,5.0,54,30.42,10.0,NNE,9.2,-,N/A,,Clear,20,2013-01-20 16:53:00
11:53 AM,21.0,3.9,48,30.40,10.0,North,6.9,-,N/A,,Mostly Cloudy,360,2013-01-20 17:53:00
12:53 PM,21.0,3.0,46,30.39,10.0,NNE,3.5,-,N/A,,Overcast,30,2013-01-20 18:53:00
1:53 PM,19.9,1.9,46,30.40,10.0,North,10.4,-,N/A,,Overcast,350,2013-01-20 19:53:00
2:53 PM,19.0,3.0,50,30.39,10.0,North,8.1,-,N/A,,Overcast,10,2013-01-20 20:53:00
3:53 PM,19.0,7.0,59,30.40,10.0,North,8.1,-,N/A,,Overcast,350,2013-01-20 21:53:00
4:53 PM,18.0,8.1,65,30.41,10.0,North,8.1,-,N/A,,Overcast,350,2013-01-20 22:53:00
5:53 PM,17.1,10.0,74,30.41,8.0,NNW,6.9,-,0.00,Snow,Light Snow,340,2013-01-20 23:53:00
6:53 PM,17.1,10.0,74,30.42,10.0,NNW,4.6,-,0.00,,Overcast,330,2013-01-21 00:53:00
7:53 PM,14.0,8.1,77,30.42,10.0,NNW,6.9,-,N/A,,Clear,330,2013-01-21 01:53:00
8:53 PM,12.0,7.0,80,30.41,10.0,WNW,6.9,-,N/A,,Clear,300,2013-01-21 02:53:00
9:53 PM,12.0,7.0,80,30.42,10.0,NW,9.2,-,N/A,,Clear,310,2013-01-21 03:53:00
10:43 PM,12.2,6.8,79,30.36,10.0,NW,17.3,23.0,N/A,,Mostly Cloudy,320,2013-01-21 04:43:00
10:50 PM,12.2,6.8,79,30.37,10.0,NW,17.3,-,N/A,,Scattered Clouds,320,2013-01-21 04:50:00
10:53 PM,12.0,6.1,77,30.43,10.0,NW,18.4,-,N/A,,Partly Cloudy,320,2013-01-21 04:53:00
11:53 PM,12.0,6.1,77,30.42,10.0,NW,9.2,-,N/A,,Scattered Clouds,310,2013-01-21 05:53:00